createdAt,value
2023-02-01T00:05:15.529Z,100921
2023-02-01T00:11:09.552Z,100930
2023-02-01T00:17:00.444Z,100945
2023-02-01T00:22:50.287Z,100943
2023-02-01T00:28:41.436Z,100941
2023-02-01T00:34:31.357Z,100940
2023-02-01T00:40:22.887Z,100945
2023-02-01T00:46:14.767Z,100942
2023-02-01T00:52:06.662Z,100943
2023-02-01T00:57:57.292Z,100936
2023-02-01T01:03:46.609Z,100942
2023-02-01T01:09:37.569Z,100937
2023-02-01T01:15:30.970Z,100945
2023-02-01T01:21:22.653Z,100937
2023-02-01T01:27:14.639Z,100911
2023-02-01T01:33:05.032Z,100890
2023-02-01T01:38:53.872Z,100889
2023-02-01T01:44:45.758Z,100894
2023-02-01T01:50:35.485Z,100919
2023-02-01T01:56:28.018Z,100931
2023-02-01T02:02:19.135Z,100934
2023-02-01T02:08:09.057Z,100935
2023-02-01T02:13:58.293Z,100923
2023-02-01T02:19:46.946Z,100901
2023-02-01T02:25:36.364Z,100887
2023-02-01T02:31:26.988Z,100885
2023-02-01T02:37:18.349Z,100891
2023-02-01T02:43:08.024Z,100879
2023-02-01T02:49:05.235Z,100875
2023-02-01T02:54:53.624Z,100889
2023-02-01T03:00:42.353Z,100883
2023-02-01T03:06:33.506Z,100882
2023-02-01T03:12:23.953Z,100879
2023-02-01T03:18:14.116Z,100864
2023-02-01T03:24:03.596Z,100859
2023-02-01T03:29:52.870Z,100843
2023-02-01T03:35:41.650Z,100848
2023-02-01T03:41:29.283Z,100850
2023-02-01T03:47:20.282Z,100858
2023-02-01T03:53:09.270Z,100866
2023-02-01T03:58:57.722Z,100866
2023-02-01T04:04:48.150Z,100873
2023-02-01T04:10:37.617Z,100870
2023-02-01T04:16:27.935Z,100867
2023-02-01T04:28:03.220Z,100870
2023-02-01T04:33:53.209Z,100863
2023-02-01T04:39:44.378Z,100870
2023-02-01T04:45:33.743Z,100860
2023-02-01T04:51:24.088Z,100850
2023-02-01T04:57:14.788Z,100849
2023-02-01T05:03:04.424Z,100853
2023-02-01T05:09:02.176Z,100855
2023-02-01T05:14:53.498Z,100847
2023-02-01T05:20:43.634Z,100829
2023-02-01T05:26:33.228Z,100825
2023-02-01T05:32:26.503Z,100817
2023-02-01T05:38:15.762Z,100830
2023-02-01T05:44:05.788Z,100838
2023-02-01T05:49:56.447Z,100850
2023-02-01T05:55:44.861Z,100851
2023-02-01T06:01:34.144Z,100849
2023-02-01T06:07:24.213Z,100840
2023-02-01T06:13:17.887Z,100836
2023-02-01T06:19:07.605Z,100832
2023-02-01T06:24:56.704Z,100835
2023-02-01T06:30:48.648Z,100830
2023-02-01T06:36:39.774Z,100829
2023-02-01T06:42:28.457Z,100830
2023-02-01T06:48:20.796Z,100843
2023-02-01T06:54:09.903Z,100841
2023-02-01T06:59:58.129Z,100844
2023-02-01T07:05:51.136Z,100871
2023-02-01T07:11:45.804Z,100880
2023-02-01T07:17:34.212Z,100898
2023-02-01T07:23:28.089Z,100890
2023-02-01T07:29:17.068Z,100888
2023-02-01T07:35:06.762Z,100906
2023-02-01T07:40:58.966Z,100911
2023-02-01T07:46:50.955Z,100929
2023-02-01T07:52:40.864Z,100924
2023-02-01T07:58:30.155Z,100919
2023-02-01T08:04:21.453Z,100917
2023-02-01T08:10:10.622Z,100919
2023-02-01T08:16:01.062Z,100916
2023-02-01T08:21:54.827Z,100937
2023-02-01T08:27:57.995Z,100930
2023-02-01T08:33:52.017Z,100927
2023-02-01T08:39:42.687Z,100918
2023-02-01T08:45:36.939Z,100917
2023-02-01T08:51:29.272Z,100939
2023-02-01T08:57:22.838Z,100950
2023-02-01T09:03:13.235Z,100953
2023-02-01T09:09:02.260Z,100961
2023-02-01T09:14:52.055Z,100969
2023-02-01T09:20:45.265Z,100962
2023-02-01T09:26:37.338Z,100967
2023-02-01T09:32:27.590Z,100969
2023-02-01T09:38:21.362Z,100964
2023-02-01T09:50:30.729Z,100962
2023-02-01T09:56:22.905Z,100970
2023-02-01T10:02:11.447Z,100972
2023-02-01T10:08:04.834Z,100962
2023-02-01T10:14:09.850Z,100961
2023-02-01T10:20:02.852Z,100949
2023-02-01T10:26:02.009Z,100943
2023-02-01T10:32:02.410Z,100937
2023-02-01T10:44:28.151Z,100936
2023-02-01T10:50:30.372Z,100923
2023-02-01T10:56:24.690Z,100929
2023-02-01T11:02:13.378Z,100928
2023-02-01T11:08:04.106Z,100922
2023-02-01T11:13:53.913Z,100910
2023-02-01T11:19:47.568Z,100900
2023-02-01T11:25:38.148Z,100902
2023-02-01T11:31:27.813Z,100907
2023-02-01T11:37:23.590Z,100912
2023-02-01T11:43:16.883Z,100913
2023-02-01T11:49:07.291Z,100895
2023-02-01T11:54:57.937Z,100898
2023-02-01T12:00:52.470Z,100872
2023-02-01T12:06:55.868Z,100877
2023-02-01T12:12:45.253Z,100861
2023-02-01T12:18:45.701Z,100860
2023-02-01T12:24:36.395Z,100859
2023-02-01T12:30:28.142Z,100841
2023-02-01T12:36:19.104Z,100841
2023-02-01T12:42:10.706Z,100839
2023-02-01T12:48:01.279Z,100845
2023-02-01T12:53:51.458Z,100847
2023-02-01T12:59:42.590Z,100843
2023-02-01T13:05:33.834Z,100855
2023-02-01T13:11:24.770Z,100856
2023-02-01T13:17:15.529Z,100830
2023-02-01T13:23:08.355Z,100822
2023-02-01T13:29:00.515Z,100815
2023-02-01T13:34:50.989Z,100793
2023-02-01T13:41:01.057Z,100798
2023-02-01T13:46:52.415Z,100801
2023-02-01T13:52:52.891Z,100787
2023-02-01T13:58:42.051Z,100781
2023-02-01T14:04:31.878Z,100778
2023-02-01T14:10:25.779Z,100778
2023-02-01T14:16:25.098Z,100771
2023-02-01T14:22:15.531Z,100782
2023-02-01T14:28:05.913Z,100783
2023-02-01T14:33:56.826Z,100796
2023-02-01T14:39:49.491Z,100798
2023-02-01T14:45:40.740Z,100790
2023-02-01T14:51:34.875Z,100795
2023-02-01T14:57:24.954Z,100804
2023-02-01T15:03:16.744Z,100813
2023-02-01T15:09:08.483Z,100809
2023-02-01T15:15:01.800Z,100797
2023-02-01T15:21:35.265Z,100801
2023-02-01T15:27:25.926Z,100803
2023-02-01T15:33:17.262Z,100799
2023-02-01T15:39:09.393Z,100798
2023-02-01T15:45:05.239Z,100782
2023-02-01T15:50:55.542Z,100798
2023-02-01T15:56:49.524Z,100792
2023-02-01T16:02:41.683Z,100803
2023-02-01T16:08:32.782Z,100806
2023-02-01T16:14:23.397Z,100810
2023-02-01T16:20:15.049Z,100824
2023-02-01T16:32:59.713Z,100849
2023-02-01T16:38:50.734Z,100853
2023-02-01T16:44:42.972Z,100855
2023-02-01T16:57:40.281Z,100893
2023-02-01T17:03:29.439Z,100899
2023-02-01T17:09:47.959Z,100896
2023-02-01T17:16:06.747Z,100899
2023-02-01T17:22:22.352Z,100897
2023-02-01T17:28:13.386Z,100895
2023-02-01T17:34:04.096Z,100902
2023-02-01T17:40:04.523Z,100902
2023-02-01T17:45:57.042Z,100899
2023-02-01T17:51:52.469Z,100895
2023-02-01T17:57:49.840Z,100895
2023-02-01T18:17:32.849Z,100901
2023-02-01T18:23:36.942Z,100896
2023-02-01T18:29:53.976Z,100895
2023-02-01T18:35:42.221Z,100895
2023-02-01T18:41:50.339Z,100890
2023-02-01T18:53:45.679Z,100897
2023-02-01T19:06:15.310Z,100912
2023-02-01T19:18:22.007Z,100920
2023-02-01T19:24:19.508Z,100914
2023-02-01T19:36:33.002Z,100903
2023-02-01T19:49:17.286Z,100894
2023-02-01T19:55:07.775Z,100896
2023-02-01T20:00:56.439Z,100901
2023-02-01T20:07:03.167Z,100906
2023-02-01T20:19:12.371Z,100888
2023-02-01T20:25:13.640Z,100895
2023-02-01T20:31:21.507Z,100899
2023-02-01T20:56:48.520Z,100880
2023-02-01T21:09:48.987Z,100901
2023-02-01T21:15:54.997Z,100887
2023-02-01T21:24:06.496Z,100879
2023-02-01T21:30:15.171Z,100888
2023-02-01T21:36:32.324Z,100895
2023-02-01T21:42:37.966Z,100900
2023-02-01T21:49:03.010Z,100914
2023-02-01T22:02:28.809Z,100915
2023-02-01T22:35:37.540Z,100943
2023-02-01T22:41:46.202Z,100939
2023-02-01T22:48:17.353Z,100941
2023-02-01T22:54:34.756Z,100941
2023-02-01T23:07:31.608Z,100944
2023-02-01T23:13:27.317Z,100950
2023-02-01T23:19:39.098Z,100957
2023-02-01T23:25:53.615Z,100956
2023-02-01T23:31:55.862Z,100964
2023-02-01T23:38:07.463Z,100962
2023-02-01T23:50:11.753Z,100958
2023-02-01T23:56:31.693Z,100962
